createdAt,value
2023-02-01T00:01:18.892Z,101846.48
2023-02-01T00:03:31.882Z,101855.99
2023-02-01T00:05:45.078Z,101857.33
2023-02-01T00:07:57.916Z,101863.75
2023-02-01T00:10:12.046Z,101870.83
2023-02-01T00:12:24.821Z,101862.61
2023-02-01T00:14:40.713Z,101853.77
2023-02-01T00:16:56.188Z,101854.76
2023-02-01T00:19:10.570Z,101855.66
2023-02-01T00:21:25.123Z,101852.73
2023-02-01T00:23:39.148Z,101841.85
2023-02-01T00:25:51.859Z,101844.98
2023-02-01T00:28:04.669Z,101856.44
2023-02-01T00:30:20.694Z,101860.44
2023-02-01T00:32:34.401Z,101858.15
2023-02-01T00:34:48.079Z,101847.75
2023-02-01T00:37:02.448Z,101840.11
2023-02-01T00:39:15.692Z,101858.79
2023-02-01T00:41:29.372Z,101870.23
2023-02-01T00:43:43.407Z,101869.49
2023-02-01T00:45:56.686Z,101861.04
2023-02-01T00:48:10.564Z,101848.83
2023-02-01T00:50:25.241Z,101846.58
2023-02-01T00:52:38.433Z,101848.34
2023-02-01T00:54:51.208Z,101847.44
2023-02-01T00:57:04.005Z,101837.55
2023-02-01T00:59:17.873Z,101835.52
2023-02-01T01:01:32.140Z,101838.00
2023-02-01T01:03:47.395Z,101840.46
2023-02-01T01:06:04.261Z,101835.50
2023-02-01T01:08:17.586Z,101833.58
2023-02-01T01:10:30.645Z,101834.46
2023-02-01T01:12:43.534Z,101831.47
2023-02-01T01:14:56.602Z,101825.75
2023-02-01T01:17:09.338Z,101824.33
2023-02-01T01:19:22.133Z,101815.20
2023-02-01T01:21:35.678Z,101803.61
2023-02-01T01:23:50.111Z,101808.27
2023-02-01T01:26:03.160Z,101816.54
2023-02-01T01:28:17.665Z,101815.45
2023-02-01T01:30:30.530Z,101816.30
2023-02-01T01:32:43.788Z,101813.06
2023-02-01T01:34:56.324Z,101810.19
2023-02-01T01:37:10.084Z,101807.80
2023-02-01T01:39:23.192Z,101809.76
2023-02-01T01:41:37.385Z,101820.45
2023-02-01T01:44:04.362Z,101827.15
2023-02-01T01:46:19.476Z,101824.58
2023-02-01T01:48:35.107Z,101825.07
2023-02-01T01:50:51.128Z,101829.11
2023-02-01T01:53:07.705Z,101830.26
2023-02-01T01:55:24.990Z,101832.51
2023-02-01T01:57:42.620Z,101833.16
2023-02-01T01:59:59.968Z,101831.74
2023-02-01T02:02:14.780Z,101824.59
2023-02-01T02:04:28.878Z,101815.49
2023-02-01T02:06:50.395Z,101808.98
2023-02-01T02:09:06.835Z,101800.05
2023-02-01T02:11:22.132Z,101795.69
2023-02-01T02:13:39.480Z,101806.59
2023-02-01T02:16:01.351Z,101809.34
2023-02-01T02:18:19.541Z,101810.53
2023-02-01T02:20:51.170Z,101810.34
2023-02-01T02:23:33.961Z,101802.17
2023-02-01T02:26:10.173Z,101798.10
2023-02-01T02:28:47.236Z,101812.48
2023-02-01T02:31:29.586Z,101818.99
2023-02-01T02:33:52.706Z,101813.86
2023-02-01T02:36:11.803Z,101812.05
2023-02-01T02:38:34.547Z,101811.77
2023-02-01T02:40:56.502Z,101813.20
2023-02-01T02:43:31.179Z,101808.80
2023-02-01T02:46:08.670Z,101807.39
2023-02-01T02:48:27.511Z,101814.51
2023-02-01T02:51:02.683Z,101821.70
2023-02-01T02:53:39.079Z,101827.25
2023-02-01T02:55:54.335Z,101818.53
2023-02-01T02:58:25.569Z,101811.46
2023-02-01T03:00:57.105Z,101806.04
2023-02-01T03:03:26.963Z,101806.66
2023-02-01T03:05:47.533Z,101804.84
2023-02-01T03:08:10.035Z,101806.84
2023-02-01T03:10:28.275Z,101811.67
2023-02-01T03:13:02.291Z,101812.88
2023-02-01T03:15:17.655Z,101807.09
2023-02-01T03:17:41.090Z,101801.55
2023-02-01T03:19:56.320Z,101797.53
2023-02-01T03:22:13.131Z,101795.26
2023-02-01T03:24:35.161Z,101789.54
2023-02-01T03:26:52.738Z,101778.64
2023-02-01T03:29:12.928Z,101778.27
2023-02-01T03:31:29.162Z,101772.94
2023-02-01T03:33:42.371Z,101777.41
2023-02-01T03:36:01.353Z,101780.61
2023-02-01T03:38:25.129Z,101773.26
2023-02-01T03:40:41.023Z,101773.54
2023-02-01T03:42:59.552Z,101779.05
2023-02-01T03:45:18.577Z,101783.86
2023-02-01T03:47:34.852Z,101783.12
2023-02-01T03:49:51.007Z,101772.83
2023-02-01T03:52:05.864Z,101781.39
2023-02-01T03:54:22.146Z,101777.15
2023-02-01T03:56:41.310Z,101768.66
2023-02-01T03:59:02.235Z,101766.55
2023-02-01T04:01:19.320Z,101771.59
2023-02-01T04:03:34.149Z,101768.14
2023-02-01T04:05:47.518Z,101764.02
2023-02-01T04:08:00.845Z,101772.58
2023-02-01T04:10:18.667Z,101772.59
2023-02-01T04:12:33.223Z,101780.48
2023-02-01T04:14:46.740Z,101789.54
2023-02-01T04:17:00.032Z,101799.95
2023-02-01T04:19:13.539Z,101803.14
2023-02-01T04:21:26.023Z,101794.48
2023-02-01T04:23:39.953Z,101788.46
2023-02-01T04:25:53.042Z,101775.89
2023-02-01T04:28:06.922Z,101771.06
2023-02-01T04:30:22.373Z,101774.22
2023-02-01T04:32:36.006Z,101779.49
2023-02-01T04:34:49.350Z,101790.89
2023-02-01T04:37:02.149Z,101798.95
2023-02-01T04:39:15.823Z,101800.12
2023-02-01T04:41:28.731Z,101803.50
2023-02-01T04:43:41.644Z,101800.10
2023-02-01T04:45:58.552Z,101806.30
2023-02-01T04:48:13.298Z,101806.30
2023-02-01T04:50:26.561Z,101804.61
2023-02-01T04:52:40.395Z,101787.91
2023-02-01T04:54:53.059Z,101776.95
2023-02-01T04:57:06.031Z,101773.63
2023-02-01T04:59:19.081Z,101779.50
2023-02-01T05:01:32.587Z,101790.00
2023-02-01T05:03:45.692Z,101795.95
2023-02-01T05:05:58.151Z,101797.33
2023-02-01T05:08:11.068Z,101793.62
2023-02-01T05:10:25.075Z,101788.31
2023-02-01T05:12:54.211Z,101784.48
2023-02-01T05:15:07.677Z,101780.85
2023-02-01T05:17:21.178Z,101782.78
2023-02-01T05:19:34.031Z,101789.44
2023-02-01T05:21:46.687Z,101791.54
2023-02-01T05:24:15.157Z,101798.24
2023-02-01T05:26:28.653Z,101807.06
2023-02-01T05:28:41.626Z,101810.87
2023-02-01T05:30:54.576Z,101807.80
2023-02-01T05:33:07.748Z,101802.06
2023-02-01T05:35:21.335Z,101802.52
2023-02-01T05:37:35.127Z,101804.65
2023-02-01T05:39:47.961Z,101803.25
2023-02-01T05:42:00.595Z,101801.16
2023-02-01T05:44:14.707Z,101801.60
2023-02-01T05:46:27.506Z,101804.59
2023-02-01T05:48:40.983Z,101799.62
2023-02-01T05:50:53.812Z,101800.05
2023-02-01T05:53:06.486Z,101798.24
2023-02-01T05:55:19.748Z,101792.30
2023-02-01T05:57:32.525Z,101780.09
2023-02-01T05:59:46.921Z,101770.01
2023-02-01T06:02:00.865Z,101770.16
2023-02-01T06:04:13.766Z,101770.85
2023-02-01T06:06:26.839Z,101781.92
2023-02-01T06:08:42.500Z,101793.72
2023-02-01T06:10:55.620Z,101796.05
2023-02-01T06:13:08.526Z,101796.25
2023-02-01T06:15:21.740Z,101791.12
2023-02-01T06:17:34.504Z,101790.63
2023-02-01T06:19:50.401Z,101790.74
2023-02-01T06:22:03.012Z,101786.30
2023-02-01T06:24:16.024Z,101783.30
2023-02-01T06:26:30.599Z,101777.83
2023-02-01T06:28:43.126Z,101778.27
2023-02-01T06:30:56.067Z,101780.10
2023-02-01T06:33:08.962Z,101786.04
2023-02-01T06:35:23.025Z,101788.46
2023-02-01T06:37:36.221Z,101784.14
2023-02-01T06:39:49.245Z,101788.81
2023-02-01T06:42:01.908Z,101794.38
2023-02-01T06:44:15.047Z,101795.19
2023-02-01T06:46:27.775Z,101792.48
2023-02-01T06:48:41.481Z,101787.14
2023-02-01T06:50:55.261Z,101786.78
2023-02-01T06:53:08.337Z,101793.31
2023-02-01T06:55:21.183Z,101794.12
2023-02-01T06:57:35.318Z,101799.96
2023-02-01T06:59:48.574Z,101802.41
2023-02-01T07:02:01.304Z,101804.84
2023-02-01T07:04:16.623Z,101801.80
2023-02-01T07:06:29.547Z,101798.68
2023-02-01T07:08:44.805Z,101795.86
2023-02-01T07:10:57.547Z,101796.40
2023-02-01T07:13:11.085Z,101791.55
2023-02-01T07:15:25.362Z,101789.83
2023-02-01T07:17:38.238Z,101788.96
2023-02-01T07:19:51.016Z,101790.80
2023-02-01T07:22:05.888Z,101791.50
2023-02-01T07:24:18.706Z,101794.73
2023-02-01T07:26:31.943Z,101801.27
2023-02-01T07:28:44.939Z,101809.33
2023-02-01T07:30:57.833Z,101811.65
2023-02-01T07:33:10.689Z,101802.63
2023-02-01T07:35:23.664Z,101796.31
2023-02-01T07:37:38.185Z,101790.11
2023-02-01T07:39:51.248Z,101785.85
2023-02-01T07:42:03.923Z,101785.26
2023-02-01T07:44:17.073Z,101790.70
2023-02-01T07:46:29.749Z,101797.66
2023-02-01T07:48:42.543Z,101793.98
2023-02-01T07:51:00.727Z,101793.02
2023-02-01T07:53:14.564Z,101792.04
2023-02-01T07:55:27.420Z,101790.67
2023-02-01T07:57:40.379Z,101790.14
2023-02-01T08:00:09.414Z,101789.11
2023-02-01T08:02:24.941Z,101789.43
2023-02-01T08:04:38.041Z,101782.04
2023-02-01T08:06:51.009Z,101785.27
2023-02-01T08:09:03.996Z,101796.53
2023-02-01T08:11:18.039Z,101801.02
2023-02-01T08:13:31.070Z,101792.98
2023-02-01T08:15:44.251Z,101787.69
2023-02-01T08:17:59.009Z,101777.59
2023-02-01T08:20:13.965Z,101782.44
2023-02-01T08:22:27.064Z,101779.68
2023-02-01T08:24:43.177Z,101785.03
2023-02-01T08:26:56.327Z,101782.54
2023-02-01T08:29:11.272Z,101775.24
2023-02-01T08:31:26.330Z,101774.39
2023-02-01T08:33:39.766Z,101771.52
2023-02-01T08:35:52.665Z,101775.66
2023-02-01T08:38:05.383Z,101771.99
2023-02-01T08:40:24.166Z,101768.17
2023-02-01T08:42:55.997Z,101765.27
2023-02-01T08:45:09.981Z,101757.35
2023-02-01T08:47:22.650Z,101758.94
2023-02-01T08:49:35.643Z,101758.30
2023-02-01T08:51:48.230Z,101755.45
2023-02-01T08:54:01.118Z,101755.85
2023-02-01T08:56:16.003Z,101759.73
2023-02-01T08:58:29.223Z,101754.77
2023-02-01T09:00:41.736Z,101754.41
2023-02-01T09:02:54.549Z,101757.86
2023-02-01T09:05:08.026Z,101759.73
2023-02-01T09:07:20.940Z,101757.89
2023-02-01T09:09:34.788Z,101758.70
2023-02-01T09:11:47.921Z,101757.48
2023-02-01T09:14:01.159Z,101755.29
2023-02-01T09:16:14.456Z,101758.60
2023-02-01T09:18:27.558Z,101760.92
2023-02-01T09:20:43.087Z,101758.81
2023-02-01T09:22:56.759Z,101757.98
2023-02-01T09:25:10.365Z,101767.59
2023-02-01T09:27:24.052Z,101766.55
2023-02-01T09:29:37.162Z,101765.19
2023-02-01T09:32:02.892Z,101767.29
2023-02-01T09:34:16.842Z,101769.33
2023-02-01T09:36:31.337Z,101772.00
2023-02-01T09:38:52.382Z,101768.14
2023-02-01T09:41:11.336Z,101766.27
2023-02-01T09:43:42.204Z,101766.73
2023-02-01T09:46:03.676Z,101773.48
2023-02-01T09:48:20.936Z,101774.20
2023-02-01T09:50:40.078Z,101770.30
2023-02-01T09:53:01.480Z,101772.06
2023-02-01T09:55:21.036Z,101771.95
2023-02-01T09:57:44.838Z,101767.56
2023-02-01T10:00:05.103Z,101770.94
2023-02-01T10:02:27.470Z,101765.39
2023-02-01T10:04:40.473Z,101766.22
2023-02-01T10:07:08.464Z,101769.27
2023-02-01T10:09:33.120Z,101771.71
2023-02-01T10:11:59.048Z,101775.42
2023-02-01T10:14:17.543Z,101774.41
2023-02-01T10:16:41.406Z,101772.89
2023-02-01T10:19:25.468Z,101773.98
2023-02-01T10:21:52.661Z,101775.00
2023-02-01T10:24:36.193Z,101776.34
2023-02-01T10:26:51.880Z,101774.39
2023-02-01T10:29:08.308Z,101773.36
2023-02-01T10:31:22.873Z,101776.75
2023-02-01T10:33:40.677Z,101773.31
2023-02-01T10:35:58.033Z,101771.02
2023-02-01T10:38:21.417Z,101766.83
2023-02-01T10:40:35.724Z,101771.20
2023-02-01T10:42:49.276Z,101775.08
2023-02-01T10:45:05.892Z,101775.10
2023-02-01T10:47:19.172Z,101775.98
2023-02-01T10:49:38.286Z,101777.34
2023-02-01T10:51:56.841Z,101780.39
2023-02-01T10:54:15.648Z,101781.86
2023-02-01T10:56:33.518Z,101786.89
2023-02-01T10:58:51.634Z,101787.43
2023-02-01T11:01:07.836Z,101782.47
2023-02-01T11:03:43.188Z,101779.34
2023-02-01T11:05:56.679Z,101776.32
2023-02-01T11:08:09.805Z,101777.87
2023-02-01T11:10:42.492Z,101778.02
2023-02-01T11:13:00.512Z,101774.10
2023-02-01T11:15:26.565Z,101768.88
2023-02-01T11:17:44.398Z,101770.91
2023-02-01T11:20:07.730Z,101770.05
2023-02-01T11:22:22.125Z,101772.14
2023-02-01T11:24:40.361Z,101775.23
2023-02-01T11:26:54.905Z,101776.90
2023-02-01T11:29:09.463Z,101773.11
2023-02-01T11:31:22.718Z,101772.78
2023-02-01T11:33:38.310Z,101779.49
2023-02-01T11:35:52.412Z,101786.36
2023-02-01T11:38:15.093Z,101789.25
2023-02-01T11:40:39.888Z,101785.65
2023-02-01T11:43:03.796Z,101778.37
2023-02-01T11:45:32.501Z,101783.64
2023-02-01T11:47:50.945Z,101777.09
2023-02-01T11:50:05.697Z,101770.47
2023-02-01T11:52:26.013Z,101772.61
2023-02-01T11:54:53.542Z,101772.34
2023-02-01T11:57:20.594Z,101778.38
2023-02-01T11:59:56.375Z,101778.42
2023-02-01T12:02:35.670Z,101775.69
2023-02-01T12:05:15.431Z,101772.67
2023-02-01T12:07:33.078Z,101773.34
2023-02-01T12:10:03.191Z,101778.52
2023-02-01T12:12:26.886Z,101781.11
2023-02-01T12:15:01.200Z,101775.91
2023-02-01T12:17:41.924Z,101779.03
2023-02-01T12:20:16.347Z,101780.31
2023-02-01T12:22:40.925Z,101775.33
2023-02-01T12:25:20.839Z,101773.17
2023-02-01T12:28:00.080Z,101770.77
2023-02-01T12:30:39.722Z,101774.05
2023-02-01T12:33:05.356Z,101773.09
2023-02-01T12:35:48.804Z,101771.70
2023-02-01T12:38:19.396Z,101781.02
2023-02-01T12:40:46.257Z,101770.10
2023-02-01T12:43:07.204Z,101773.96
2023-02-01T12:45:26.011Z,101774.39
2023-02-01T12:47:44.780Z,101777.14
2023-02-01T12:50:06.320Z,101777.13
2023-02-01T12:52:24.438Z,101767.34
2023-02-01T12:54:43.816Z,101762.59
2023-02-01T12:57:02.700Z,101759.34
2023-02-01T12:59:24.008Z,101757.79
2023-02-01T13:01:43.473Z,101756.30
2023-02-01T13:04:08.021Z,101759.85
2023-02-01T13:06:24.191Z,101757.57
2023-02-01T13:08:46.104Z,101752.98
2023-02-01T13:11:07.434Z,101747.94
2023-02-01T13:13:27.078Z,101743.56
2023-02-01T13:15:45.264Z,101746.48
2023-02-01T13:17:59.941Z,101752.92
2023-02-01T13:20:26.108Z,101748.83
2023-02-01T13:22:43.448Z,101749.66
2023-02-01T13:25:01.012Z,101757.61
2023-02-01T13:27:18.089Z,101759.48
2023-02-01T13:29:33.041Z,101758.36
2023-02-01T13:32:19.386Z,101765.15
2023-02-01T13:35:08.091Z,101760.80
2023-02-01T13:37:39.359Z,101761.86
2023-02-01T13:40:09.097Z,101763.20
2023-02-01T13:42:25.847Z,101757.27
2023-02-01T13:44:42.835Z,101753.98
2023-02-01T13:47:00.464Z,101754.95
2023-02-01T13:49:20.531Z,101757.63
2023-02-01T13:51:45.513Z,101763.84
2023-02-01T13:53:59.684Z,101767.65
2023-02-01T13:56:18.460Z,101763.45
2023-02-01T13:58:38.768Z,101757.55
2023-02-01T14:00:53.059Z,101752.10
2023-02-01T14:03:22.952Z,101746.17
2023-02-01T14:06:20.228Z,101745.23
2023-02-01T14:08:44.624Z,101749.17
2023-02-01T14:11:03.028Z,101755.55
2023-02-01T14:13:31.408Z,101762.15
2023-02-01T14:15:57.481Z,101769.66
2023-02-01T14:18:47.822Z,101765.08
2023-02-01T14:21:23.949Z,101761.09
2023-02-01T14:23:43.626Z,101769.40
2023-02-01T14:26:23.001Z,101764.54
2023-02-01T14:28:37.020Z,101757.61
2023-02-01T14:30:52.291Z,101757.91
2023-02-01T14:33:16.781Z,101755.78
2023-02-01T14:35:32.074Z,101754.74
2023-02-01T14:37:48.294Z,101745.04
2023-02-01T14:40:07.993Z,101755.05
2023-02-01T14:42:29.143Z,101755.86
2023-02-01T14:44:58.600Z,101758.92
2023-02-01T14:47:38.132Z,101761.34
2023-02-01T14:49:59.849Z,101763.91
2023-02-01T14:52:20.463Z,101765.78
2023-02-01T14:54:33.957Z,101770.20
2023-02-01T14:56:48.907Z,101770.46
2023-02-01T14:59:06.259Z,101775.53
2023-02-01T15:01:31.412Z,101774.80
2023-02-01T15:03:52.713Z,101774.47
2023-02-01T15:06:08.022Z,101779.46
2023-02-01T15:08:28.496Z,101773.27
2023-02-01T15:10:51.837Z,101773.88
2023-02-01T15:13:05.183Z,101775.34
2023-02-01T15:15:24.039Z,101774.48
2023-02-01T15:17:38.128Z,101771.31
2023-02-01T15:19:59.865Z,101774.39
2023-02-01T15:22:22.738Z,101775.41
2023-02-01T15:24:36.172Z,101783.14
2023-02-01T15:26:49.409Z,101781.45
2023-02-01T15:29:03.140Z,101775.06
2023-02-01T15:31:17.985Z,101771.89
2023-02-01T15:33:32.118Z,101764.30
2023-02-01T15:35:48.834Z,101758.50
2023-02-01T15:38:39.845Z,101752.73
2023-02-01T15:41:04.724Z,101757.15
2023-02-01T15:43:20.150Z,101753.64
2023-02-01T15:45:37.278Z,101760.73
2023-02-01T15:47:55.080Z,101760.10
2023-02-01T15:50:09.644Z,101761.88
2023-02-01T15:52:30.487Z,101764.64
2023-02-01T15:54:52.557Z,101774.05
2023-02-01T15:57:07.899Z,101780.05
2023-02-01T15:59:23.828Z,101784.23
2023-02-01T16:01:43.145Z,101783.65
2023-02-01T16:04:05.855Z,101783.92
2023-02-01T16:06:31.142Z,101787.68
2023-02-01T16:08:53.247Z,101787.58
2023-02-01T16:11:26.235Z,101783.38
2023-02-01T16:13:39.691Z,101789.63
2023-02-01T16:15:53.043Z,101792.00
2023-02-01T16:18:07.294Z,101791.13
2023-02-01T16:20:20.860Z,101791.75
2023-02-01T16:22:34.169Z,101800.63
2023-02-01T16:24:46.989Z,101806.16
2023-02-01T16:26:59.834Z,101804.64
2023-02-01T16:29:12.889Z,101798.44
2023-02-01T16:31:30.390Z,101790.90
2023-02-01T16:33:43.069Z,101791.02
2023-02-01T16:35:57.207Z,101791.52
2023-02-01T16:38:14.843Z,101790.42
2023-02-01T16:40:28.103Z,101785.60
2023-02-01T16:42:41.798Z,101783.48
2023-02-01T16:44:54.611Z,101782.00
2023-02-01T16:47:12.639Z,101778.91
2023-02-01T16:49:27.679Z,101777.32
2023-02-01T16:51:44.611Z,101778.11
2023-02-01T16:53:57.808Z,101777.64
2023-02-01T16:56:17.010Z,101776.94
2023-02-01T16:58:30.878Z,101771.68
2023-02-01T17:00:43.842Z,101780.20
2023-02-01T17:02:57.759Z,101776.29
2023-02-01T17:05:11.326Z,101772.41
2023-02-01T17:07:25.414Z,101764.77
2023-02-01T17:09:38.863Z,101767.23
2023-02-01T17:11:52.725Z,101767.02
2023-02-01T17:14:17.720Z,101767.20
2023-02-01T17:16:33.003Z,101768.52
2023-02-01T17:18:46.152Z,101772.63
2023-02-01T17:20:58.897Z,101777.10
2023-02-01T17:23:12.284Z,101774.30
2023-02-01T17:25:27.276Z,101780.06
2023-02-01T17:27:40.061Z,101780.48
2023-02-01T17:29:54.956Z,101782.31
2023-02-01T17:32:14.048Z,101780.13
2023-02-01T17:34:26.864Z,101778.86
2023-02-01T17:36:41.045Z,101788.09
2023-02-01T17:39:04.764Z,101798.41
2023-02-01T17:41:19.923Z,101797.60
2023-02-01T17:43:33.138Z,101788.16
2023-02-01T17:45:52.817Z,101784.89
2023-02-01T17:48:05.967Z,101786.17
2023-02-01T17:50:19.326Z,101788.31
2023-02-01T17:52:32.587Z,101792.04
2023-02-01T17:54:46.041Z,101792.63
2023-02-01T17:57:01.372Z,101795.39
2023-02-01T17:59:16.272Z,101791.90
2023-02-01T18:01:31.361Z,101790.79
2023-02-01T18:03:48.150Z,101795.23
2023-02-01T18:06:02.566Z,101797.64
2023-02-01T18:08:15.277Z,101797.55
2023-02-01T18:10:28.104Z,101796.46
2023-02-01T18:12:40.848Z,101798.58
2023-02-01T18:14:53.535Z,101804.86
2023-02-01T18:17:06.881Z,101808.14
2023-02-01T18:19:19.800Z,101811.21
2023-02-01T18:21:38.364Z,101806.24
2023-02-01T18:23:51.469Z,101803.03
2023-02-01T18:26:05.355Z,101806.73
2023-02-01T18:28:18.548Z,101803.11
2023-02-01T18:30:34.811Z,101807.22
2023-02-01T18:32:48.120Z,101812.69
2023-02-01T18:35:01.634Z,101812.67
2023-02-01T18:37:14.624Z,101809.60
2023-02-01T18:39:27.676Z,101812.45
2023-02-01T18:41:41.581Z,101807.02
2023-02-01T18:43:55.144Z,101809.64
2023-02-01T18:46:08.399Z,101807.66
2023-02-01T18:48:23.463Z,101803.16
2023-02-01T18:50:38.646Z,101806.15
2023-02-01T18:52:55.822Z,101800.96
2023-02-01T18:55:09.274Z,101799.61
2023-02-01T18:57:22.552Z,101807.36
2023-02-01T18:59:35.501Z,101816.20
2023-02-01T19:01:48.452Z,101817.00
2023-02-01T19:04:03.767Z,101818.61
2023-02-01T19:06:33.090Z,101821.05
2023-02-01T19:08:47.901Z,101817.66
2023-02-01T19:11:01.697Z,101812.14
2023-02-01T19:13:16.547Z,101806.16
2023-02-01T19:15:30.192Z,101803.77
2023-02-01T19:17:43.307Z,101799.02
2023-02-01T19:19:56.328Z,101792.16
2023-02-01T19:22:08.945Z,101779.20
2023-02-01T19:24:21.639Z,101779.81
2023-02-01T19:26:36.347Z,101776.30
2023-02-01T19:28:50.002Z,101774.98
2023-02-01T19:31:10.195Z,101787.85
2023-02-01T19:33:23.310Z,101790.14
2023-02-01T19:35:35.965Z,101786.27
2023-02-01T19:37:49.539Z,101780.80
2023-02-01T19:40:02.347Z,101777.38
2023-02-01T19:42:15.305Z,101767.97
2023-02-01T19:44:29.226Z,101763.30
2023-02-01T19:46:42.140Z,101758.29
2023-02-01T19:48:55.510Z,101758.23
2023-02-01T19:51:09.505Z,101750.69
2023-02-01T19:53:26.037Z,101750.54
2023-02-01T19:55:38.857Z,101742.30
2023-02-01T19:57:53.145Z,101734.22
2023-02-01T20:00:06.880Z,101732.48
2023-02-01T20:02:20.784Z,101728.63
2023-02-01T20:04:33.846Z,101735.73
2023-02-01T20:06:49.975Z,101739.83
2023-02-01T20:09:03.211Z,101738.30
2023-02-01T20:11:16.638Z,101741.33
2023-02-01T20:13:29.392Z,101742.95
2023-02-01T20:15:43.152Z,101740.58
2023-02-01T20:17:55.664Z,101739.00
2023-02-01T20:20:08.787Z,101734.25
2023-02-01T20:22:24.706Z,101733.03
2023-02-01T20:24:37.059Z,101725.98
2023-02-01T20:26:51.845Z,101717.67
2023-02-01T20:29:05.031Z,101705.02
2023-02-01T20:31:18.370Z,101706.71
2023-02-01T20:33:31.769Z,101699.86
2023-02-01T20:35:46.879Z,101693.73
2023-02-01T20:38:00.252Z,101695.48
2023-02-01T20:40:17.035Z,101693.86
2023-02-01T20:42:29.563Z,101698.10
2023-02-01T20:44:42.679Z,101693.12
2023-02-01T20:46:55.391Z,101696.47
2023-02-01T20:49:08.078Z,101691.22
2023-02-01T20:51:22.932Z,101687.38
2023-02-01T20:53:35.807Z,101686.17
2023-02-01T20:55:48.903Z,101684.27
2023-02-01T20:58:01.723Z,101684.08
2023-02-01T21:00:17.549Z,101678.58
2023-02-01T21:02:30.636Z,101675.64
2023-02-01T21:04:43.686Z,101671.34
2023-02-01T21:06:57.672Z,101672.97
2023-02-01T21:09:10.472Z,101668.16
2023-02-01T21:11:23.105Z,101660.49
2023-02-01T21:13:41.593Z,101664.88
2023-02-01T21:15:54.516Z,101665.73
2023-02-01T21:18:10.171Z,101661.48
2023-02-01T21:20:23.751Z,101657.78
2023-02-01T21:22:36.736Z,101657.63
2023-02-01T21:24:49.818Z,101654.74
2023-02-01T21:27:04.059Z,101651.55
2023-02-01T21:29:18.645Z,101646.80
2023-02-01T21:31:31.331Z,101644.55
2023-02-01T21:33:44.321Z,101638.62
2023-02-01T21:35:58.176Z,101638.50
2023-02-01T21:38:11.942Z,101635.48
2023-02-01T21:40:26.515Z,101637.52
2023-02-01T21:42:41.752Z,101639.27
2023-02-01T21:44:54.483Z,101643.05
2023-02-01T21:47:09.045Z,101643.37
2023-02-01T21:49:22.227Z,101640.95
2023-02-01T21:51:36.074Z,101633.15
2023-02-01T21:53:49.315Z,101631.70
2023-02-01T21:56:02.766Z,101634.15
2023-02-01T21:58:16.143Z,101634.83
2023-02-01T22:00:29.490Z,101636.66
2023-02-01T22:02:42.548Z,101631.17
2023-02-01T22:04:55.769Z,101630.44
2023-02-01T22:07:08.621Z,101628.17
2023-02-01T22:09:23.840Z,101628.83
2023-02-01T22:11:36.849Z,101625.54
2023-02-01T22:13:49.658Z,101623.74
2023-02-01T22:16:04.003Z,101620.52
2023-02-01T22:18:17.532Z,101615.50
2023-02-01T22:20:30.777Z,101611.24
2023-02-01T22:22:43.921Z,101605.10
2023-02-01T22:24:57.065Z,101602.92
2023-02-01T22:27:13.648Z,101605.30
2023-02-01T22:29:27.999Z,101598.86
2023-02-01T22:31:41.259Z,101596.66
2023-02-01T22:33:55.487Z,101591.78
2023-02-01T22:36:08.997Z,101598.57
2023-02-01T22:38:22.094Z,101597.88
2023-02-01T22:40:34.766Z,101598.34
2023-02-01T22:42:47.779Z,101592.39
2023-02-01T22:45:02.438Z,101591.52
2023-02-01T22:47:15.340Z,101586.45
2023-02-01T22:49:28.355Z,101581.09
2023-02-01T22:51:42.358Z,101576.75
2023-02-01T22:53:58.885Z,101574.77
2023-02-01T22:56:14.091Z,101575.39
2023-02-01T22:58:27.122Z,101579.44
2023-02-01T23:00:39.922Z,101578.36
2023-02-01T23:02:52.925Z,101577.42
2023-02-01T23:05:06.319Z,101583.93
2023-02-01T23:07:19.853Z,101588.34
2023-02-01T23:09:33.149Z,101585.91
2023-02-01T23:11:46.515Z,101587.98
2023-02-01T23:13:59.386Z,101586.83
2023-02-01T23:16:14.375Z,101582.78
2023-02-01T23:18:29.232Z,101581.21
2023-02-01T23:20:43.381Z,101580.52
2023-02-01T23:22:56.307Z,101582.43
2023-02-01T23:25:09.499Z,101582.34
2023-02-01T23:27:22.374Z,101584.50
2023-02-01T23:29:36.045Z,101584.81
2023-02-01T23:31:49.188Z,101587.61
2023-02-01T23:34:02.887Z,101586.73
2023-02-01T23:36:20.299Z,101583.09
2023-02-01T23:38:33.649Z,101583.08
2023-02-01T23:40:46.548Z,101577.80
2023-02-01T23:43:12.231Z,101582.40
2023-02-01T23:45:25.332Z,101576.71
2023-02-01T23:47:37.992Z,101578.41
2023-02-01T23:49:50.794Z,101569.98
2023-02-01T23:52:03.452Z,101570.98
2023-02-01T23:54:17.026Z,101565.16
2023-02-01T23:56:32.427Z,101566.65
2023-02-01T23:58:45.395Z,101569.58
